createdAt,value
2023-03-31T00:01:42.099Z,6.10
2023-03-31T00:04:13.751Z,6.10
2023-03-31T00:06:42.758Z,7.10
2023-03-31T00:09:13.186Z,7.40
2023-03-31T00:11:42.429Z,7.50
2023-03-31T00:14:11.104Z,7.10
2023-03-31T00:16:41.464Z,7.20
2023-03-31T00:19:18.064Z,7.30
2023-03-31T00:21:51.293Z,5.70
2023-03-31T00:24:19.888Z,6.30
2023-03-31T00:26:48.473Z,6.80
2023-03-31T00:29:17.119Z,6.30
2023-03-31T00:31:45.722Z,5.90
2023-03-31T00:34:14.786Z,10.70
2023-03-31T00:36:48.904Z,6.90
2023-03-31T00:39:19.179Z,6.50
2023-03-31T00:41:47.713Z,6.90
2023-03-31T00:44:24.499Z,6.20
2023-03-31T00:46:53.736Z,6.90
2023-03-31T00:49:45.372Z,8.90
2023-03-31T00:55:15.425Z,6.50
2023-03-31T00:57:46.857Z,8.70
2023-03-31T01:00:16.044Z,6.00
2023-03-31T01:02:52.552Z,7.10
2023-03-31T01:05:26.368Z,7.00
2023-03-31T01:07:55.068Z,7.00
2023-03-31T01:10:23.638Z,6.60
2023-03-31T01:12:53.894Z,7.70
2023-03-31T01:15:22.547Z,7.00
2023-03-31T01:17:51.381Z,5.90
2023-03-31T01:20:58.016Z,7.20
2023-03-31T01:23:46.775Z,5.60
2023-03-31T01:26:50.251Z,5.50
2023-03-31T01:30:07.178Z,6.00
2023-03-31T01:33:02.601Z,5.20
2023-03-31T01:36:08.944Z,5.40
2023-03-31T01:38:51.290Z,6.00
2023-03-31T01:41:29.419Z,5.70
2023-03-31T01:44:18.108Z,5.60
2023-03-31T01:49:40.781Z,6.80
2023-03-31T01:52:17.631Z,6.10
2023-03-31T01:54:52.810Z,5.80
2023-03-31T01:57:30.163Z,5.50
2023-03-31T02:00:03.706Z,4.60
2023-03-31T02:02:51.695Z,5.50
2023-03-31T02:05:21.481Z,5.40
2023-03-31T02:08:02.535Z,5.60
2023-03-31T02:10:31.941Z,6.70
2023-03-31T02:13:05.184Z,5.80
2023-03-31T02:15:36.828Z,5.30
2023-03-31T02:18:11.454Z,5.10
2023-03-31T02:20:46.518Z,4.20
2023-03-31T02:23:15.713Z,5.20
2023-03-31T02:25:52.399Z,7.40
2023-03-31T02:28:24.035Z,5.30
2023-03-31T02:31:34.615Z,5.30
2023-03-31T02:34:06.094Z,5.10
2023-03-31T02:36:36.314Z,5.40
2023-03-31T02:39:08.174Z,6.40
2023-03-31T02:41:37.183Z,5.30
2023-03-31T02:44:05.753Z,5.80
2023-03-31T02:46:34.273Z,5.40
2023-03-31T02:49:03.663Z,5.70
2023-03-31T02:51:58.787Z,5.70
2023-03-31T02:54:50.752Z,5.90
2023-03-31T03:00:29.825Z,5.40
2023-03-31T03:03:17.889Z,6.30
2023-03-31T03:05:50.593Z,5.50
2023-03-31T03:08:40.584Z,5.20
2023-03-31T03:11:26.539Z,6.60
2023-03-31T03:14:06.198Z,6.30
2023-03-31T03:16:38.359Z,5.20
2023-03-31T03:19:07.127Z,6.20
2023-03-31T03:21:35.507Z,6.20
2023-03-31T03:24:04.222Z,6.00
2023-03-31T03:26:35.459Z,4.90
2023-03-31T03:29:04.445Z,6.50
2023-03-31T03:31:33.943Z,6.60
2023-03-31T03:34:03.431Z,7.50
2023-03-31T03:36:33.151Z,5.40
2023-03-31T03:39:03.166Z,5.20
2023-03-31T03:41:33.490Z,6.50
2023-03-31T03:44:01.882Z,5.50
2023-03-31T03:46:30.893Z,5.70
2023-03-31T03:49:10.859Z,5.90
2023-03-31T03:51:39.600Z,5.70
2023-03-31T03:54:07.992Z,7.60
2023-03-31T03:56:38.298Z,6.20
2023-03-31T03:59:07.566Z,6.00
2023-03-31T04:01:39.603Z,5.90
2023-03-31T04:04:09.483Z,6.60
2023-03-31T04:06:38.514Z,6.60
2023-03-31T04:09:07.511Z,6.00
2023-03-31T04:11:36.587Z,4.60
2023-03-31T04:14:05.145Z,6.80
2023-03-31T04:16:34.789Z,5.30
2023-03-31T04:19:05.170Z,7.20
2023-03-31T04:21:36.419Z,7.30
2023-03-31T04:24:05.936Z,6.00
2023-03-31T04:26:44.052Z,6.10
2023-03-31T04:29:13.437Z,5.50
2023-03-31T04:31:43.166Z,4.80
2023-03-31T04:34:13.713Z,6.10
2023-03-31T04:36:47.945Z,5.60
2023-03-31T04:39:18.313Z,6.60
2023-03-31T04:41:49.167Z,6.00
2023-03-31T04:44:17.847Z,6.20
2023-03-31T04:46:46.582Z,5.30
2023-03-31T04:49:20.862Z,5.60
2023-03-31T04:51:49.451Z,4.80
2023-03-31T04:54:26.503Z,6.40
2023-03-31T04:56:55.132Z,4.60
2023-03-31T04:59:23.774Z,4.50
2023-03-31T05:01:53.436Z,4.40
2023-03-31T05:04:22.004Z,4.70
2023-03-31T05:06:51.394Z,5.10
2023-03-31T05:09:21.102Z,4.90
2023-03-31T05:11:51.936Z,5.80
2023-03-31T05:14:21.103Z,6.00
2023-03-31T05:16:49.613Z,3.40
2023-03-31T05:19:18.472Z,4.00
2023-03-31T05:21:46.896Z,4.20
2023-03-31T05:24:16.005Z,4.60
2023-03-31T05:26:52.889Z,3.50
2023-03-31T05:29:21.745Z,4.80
2023-03-31T05:31:50.243Z,4.90
2023-03-31T05:34:19.055Z,4.70
2023-03-31T05:36:48.537Z,3.70
2023-03-31T05:39:17.107Z,3.70
2023-03-31T05:41:45.784Z,4.20
2023-03-31T05:44:15.185Z,6.20
2023-03-31T05:46:43.599Z,5.20
2023-03-31T05:49:12.297Z,3.60
2023-03-31T05:51:40.863Z,3.80
2023-03-31T05:54:09.279Z,3.10
2023-03-31T05:56:37.900Z,3.00
2023-03-31T05:59:06.480Z,4.70
2023-03-31T06:01:35.693Z,3.50
2023-03-31T06:04:04.698Z,3.50
2023-03-31T06:06:37.594Z,3.70
2023-03-31T06:09:07.775Z,3.40
2023-03-31T06:11:36.772Z,3.90
2023-03-31T06:16:34.003Z,4.90
2023-03-31T06:19:02.631Z,5.10
2023-03-31T06:21:31.122Z,5.90
2023-03-31T06:24:00.636Z,5.70
2023-03-31T06:26:29.505Z,5.40
2023-03-31T06:28:57.982Z,4.90
2023-03-31T06:31:26.897Z,4.70
2023-03-31T06:33:55.728Z,3.60
2023-03-31T06:36:24.605Z,4.80
2023-03-31T06:38:52.978Z,3.50
2023-03-31T06:41:22.679Z,4.30
2023-03-31T06:43:51.452Z,3.90
2023-03-31T06:46:20.032Z,2.90
2023-03-31T06:48:49.722Z,4.00
2023-03-31T06:51:21.033Z,3.10
2023-03-31T06:53:49.769Z,2.90
2023-03-31T06:56:18.713Z,3.40
2023-03-31T06:58:48.457Z,3.30
2023-03-31T07:01:17.173Z,3.80
2023-03-31T07:03:48.041Z,2.90
2023-03-31T07:06:17.086Z,3.40
2023-03-31T07:08:46.193Z,2.40
2023-03-31T07:11:14.868Z,3.10
2023-03-31T07:13:43.654Z,2.60
2023-03-31T07:16:14.415Z,3.10
2023-03-31T07:18:43.578Z,2.60
2023-03-31T07:21:13.074Z,3.40
2023-03-31T07:23:42.157Z,4.40
2023-03-31T07:26:11.711Z,2.80
2023-03-31T07:28:40.828Z,3.30
2023-03-31T07:31:13.558Z,3.00
2023-03-31T07:33:42.024Z,2.70
2023-03-31T07:36:13.794Z,2.20
2023-03-31T07:38:47.101Z,2.60
2023-03-31T07:41:18.336Z,3.10
2023-03-31T07:43:46.746Z,3.90
2023-03-31T07:46:26.685Z,2.90
2023-03-31T07:48:55.980Z,3.20
2023-03-31T07:51:26.465Z,4.20
2023-03-31T07:53:55.697Z,3.40
2023-03-31T07:56:25.240Z,3.00
2023-03-31T07:58:57.340Z,2.90
2023-03-31T08:01:29.045Z,3.00
2023-03-31T08:03:59.377Z,3.80
2023-03-31T08:06:29.282Z,3.30
2023-03-31T08:08:58.158Z,5.10
2023-03-31T08:11:26.757Z,3.10
2023-03-31T08:13:55.802Z,3.20
2023-03-31T08:16:24.582Z,2.80
2023-03-31T08:18:54.574Z,3.70
2023-03-31T08:21:24.522Z,4.30
2023-03-31T08:24:01.594Z,3.50
2023-03-31T08:26:33.129Z,3.70
2023-03-31T08:29:01.595Z,3.90
2023-03-31T08:31:30.808Z,3.90
2023-03-31T08:33:59.458Z,4.00
2023-03-31T08:36:30.909Z,3.50
2023-03-31T08:38:59.798Z,3.90
2023-03-31T08:41:44.488Z,4.60
2023-03-31T08:44:37.611Z,3.20
2023-03-31T08:47:08.050Z,4.80
2023-03-31T08:49:42.715Z,3.50
2023-03-31T08:52:16.398Z,2.60
2023-03-31T08:54:47.414Z,4.10
2023-03-31T08:57:25.637Z,3.40
2023-03-31T08:59:58.541Z,3.10
2023-03-31T09:02:49.702Z,3.60
2023-03-31T09:05:43.354Z,3.10
2023-03-31T09:08:17.708Z,2.80
2023-03-31T09:10:57.248Z,4.50
2023-03-31T09:13:35.057Z,6.80
2023-03-31T09:16:05.211Z,4.00
2023-03-31T09:18:37.565Z,4.40
2023-03-31T09:21:12.808Z,4.90
2023-03-31T09:23:45.051Z,2.80
2023-03-31T09:26:26.788Z,3.20
2023-03-31T09:28:57.796Z,3.00
2023-03-31T09:31:26.313Z,3.10
2023-03-31T09:33:59.857Z,3.20
2023-03-31T09:36:28.982Z,3.60
2023-03-31T09:38:59.191Z,3.50
2023-03-31T09:41:27.771Z,5.90
2023-03-31T09:43:56.716Z,3.50
2023-03-31T09:46:35.572Z,4.40
2023-03-31T09:49:11.873Z,3.60
2023-03-31T09:51:42.874Z,3.50
2023-03-31T09:54:22.355Z,4.40
2023-03-31T09:56:54.033Z,3.10
2023-03-31T09:59:35.172Z,2.40
2023-03-31T10:02:21.982Z,3.90
2023-03-31T10:04:51.157Z,2.40
2023-03-31T10:07:23.535Z,2.40
2023-03-31T10:09:54.168Z,3.40
2023-03-31T10:12:24.620Z,2.80
2023-03-31T10:14:54.832Z,2.00
2023-03-31T10:17:24.370Z,3.70
2023-03-31T10:19:58.201Z,2.80
2023-03-31T10:22:31.221Z,2.80
2023-03-31T10:25:11.073Z,4.20
2023-03-31T10:27:48.307Z,2.80
2023-03-31T10:30:21.384Z,2.60
2023-03-31T10:32:52.517Z,3.10
2023-03-31T10:35:35.614Z,2.30
2023-03-31T10:38:11.029Z,3.20
2023-03-31T10:40:40.814Z,2.90
2023-03-31T10:43:17.092Z,3.70
2023-03-31T10:45:49.559Z,2.80
2023-03-31T10:48:31.592Z,3.20
2023-03-31T10:51:28.975Z,3.00
2023-03-31T10:54:04.004Z,2.80
2023-03-31T10:57:03.545Z,3.80
2023-03-31T10:59:41.453Z,3.90
2023-03-31T11:02:41.405Z,3.90
2023-03-31T11:05:16.027Z,4.60
2023-03-31T11:08:00.167Z,4.70
2023-03-31T11:11:09.742Z,5.70
2023-03-31T11:13:44.212Z,4.00
2023-03-31T11:16:34.198Z,5.10
2023-03-31T11:19:21.805Z,4.40
2023-03-31T11:22:10.125Z,4.60
2023-03-31T11:24:47.672Z,4.60
2023-03-31T11:27:38.228Z,4.00
2023-03-31T11:30:29.253Z,4.70
2023-03-31T11:33:04.476Z,3.80
2023-03-31T11:35:48.153Z,3.80
2023-03-31T11:38:36.145Z,3.30
2023-03-31T11:41:34.529Z,4.80
2023-03-31T11:44:05.783Z,3.20
2023-03-31T11:46:51.652Z,2.70
2023-03-31T11:49:25.204Z,3.40
2023-03-31T11:52:00.045Z,2.90
2023-03-31T11:54:32.818Z,3.80
2023-03-31T11:57:13.698Z,3.10
2023-03-31T11:59:42.952Z,3.50
2023-03-31T12:02:18.474Z,3.20
2023-03-31T12:04:49.804Z,2.90
2023-03-31T12:07:24.267Z,2.90
2023-03-31T12:10:21.881Z,3.90
2023-03-31T12:13:02.554Z,3.50
2023-03-31T12:15:42.152Z,4.00
2023-03-31T12:18:15.131Z,3.30
2023-03-31T12:21:00.107Z,4.60
2023-03-31T12:23:30.479Z,4.80
2023-03-31T12:26:03.951Z,3.50
2023-03-31T12:28:37.560Z,3.20
2023-03-31T12:31:06.710Z,3.80
2023-03-31T12:33:42.852Z,3.90
2023-03-31T12:36:22.157Z,3.80
2023-03-31T12:38:58.898Z,4.80
2023-03-31T12:41:39.523Z,3.90
2023-03-31T12:44:35.994Z,3.70
2023-03-31T12:47:18.704Z,3.60
2023-03-31T12:50:10.052Z,2.70
2023-03-31T12:52:47.436Z,2.90
2023-03-31T12:55:39.553Z,5.40
2023-03-31T12:58:34.298Z,4.60
2023-03-31T13:01:16.398Z,4.80
2023-03-31T13:04:17.692Z,6.40
2023-03-31T13:06:50.789Z,7.10
2023-03-31T13:09:45.076Z,3.10
2023-03-31T13:12:21.968Z,4.00
2023-03-31T13:14:54.656Z,2.40
2023-03-31T13:17:59.836Z,2.60
2023-03-31T13:20:38.501Z,4.10
2023-03-31T13:23:23.191Z,3.90
2023-03-31T13:25:56.181Z,3.90
2023-03-31T13:28:39.157Z,5.80
2023-03-31T13:31:09.588Z,4.70
2023-03-31T13:34:07.585Z,4.80
2023-03-31T13:36:48.948Z,5.50
2023-03-31T13:39:41.848Z,7.90
2023-03-31T13:42:22.665Z,5.20
2023-03-31T13:45:14.342Z,7.80
2023-03-31T13:47:54.679Z,6.20
2023-03-31T13:50:33.208Z,6.80
2023-03-31T13:53:08.427Z,7.70
2023-03-31T13:56:01.571Z,6.60
2023-03-31T13:58:45.611Z,6.30
2023-03-31T14:01:36.363Z,6.00
2023-03-31T14:04:23.798Z,7.50
2023-03-31T14:06:58.459Z,7.10
2023-03-31T14:09:32.985Z,9.50
2023-03-31T14:12:01.756Z,7.40
2023-03-31T14:14:30.664Z,8.80
2023-03-31T14:17:02.224Z,7.30
2023-03-31T14:19:59.239Z,6.90
2023-03-31T14:22:57.853Z,9.20
2023-03-31T14:25:45.180Z,7.90
2023-03-31T14:28:54.417Z,9.70
2023-03-31T14:31:26.805Z,6.80
2023-03-31T14:34:14.528Z,6.50
2023-03-31T14:37:08.333Z,6.90
2023-03-31T14:39:40.739Z,9.50
2023-03-31T14:42:17.119Z,10.00
2023-03-31T14:44:47.162Z,8.00
2023-03-31T14:47:29.404Z,7.50
2023-03-31T14:50:13.622Z,9.00
2023-03-31T14:52:50.081Z,10.10
2023-03-31T14:55:22.570Z,15.10
2023-03-31T14:57:53.666Z,9.90
2023-03-31T15:00:30.744Z,8.10
2023-03-31T15:03:19.054Z,7.20
2023-03-31T15:05:49.831Z,8.60
2023-03-31T15:08:20.814Z,8.90
2023-03-31T15:10:58.836Z,7.30
2023-03-31T15:13:37.360Z,8.10
2023-03-31T15:16:28.609Z,9.40
2023-03-31T15:19:06.548Z,10.70
2023-03-31T15:21:37.692Z,12.20
2023-03-31T15:24:06.576Z,11.00
2023-03-31T15:26:44.920Z,8.90
2023-03-31T15:29:19.744Z,10.40
2023-03-31T15:31:48.480Z,8.70
2023-03-31T15:34:27.326Z,11.00
2023-03-31T15:36:56.717Z,12.00
2023-03-31T15:39:26.520Z,10.80
2023-03-31T15:41:54.920Z,12.60
2023-03-31T15:44:26.679Z,12.30
2023-03-31T15:47:02.804Z,10.90
2023-03-31T15:49:31.624Z,9.10
2023-03-31T15:52:01.643Z,8.50
2023-03-31T15:54:36.077Z,8.60
2023-03-31T15:57:05.768Z,9.50
2023-03-31T16:02:44.253Z,9.10
2023-03-31T16:05:43.707Z,7.50
2023-03-31T16:08:38.850Z,7.60
2023-03-31T16:11:13.625Z,10.80
2023-03-31T16:13:44.610Z,8.60
2023-03-31T16:16:15.464Z,8.60
2023-03-31T16:18:47.178Z,8.80
2023-03-31T16:21:24.760Z,10.30
2023-03-31T16:23:54.344Z,9.10
2023-03-31T16:26:28.706Z,8.20
2023-03-31T16:28:57.977Z,8.00
2023-03-31T16:31:31.444Z,8.50
2023-03-31T16:34:04.093Z,10.10
2023-03-31T16:36:32.653Z,10.10
2023-03-31T16:39:05.060Z,11.20
2023-03-31T16:41:35.303Z,10.00
2023-03-31T16:44:04.443Z,11.30
2023-03-31T16:46:33.241Z,11.10
2023-03-31T16:49:02.169Z,7.60
2023-03-31T16:51:31.952Z,6.30
2023-03-31T16:54:01.739Z,7.80
2023-03-31T16:56:31.232Z,7.60
2023-03-31T16:59:00.163Z,7.10
2023-03-31T17:01:28.545Z,8.50
2023-03-31T17:03:57.191Z,6.20
2023-03-31T17:06:25.766Z,7.70
2023-03-31T17:08:54.269Z,7.80
2023-03-31T17:11:22.984Z,6.50
2023-03-31T17:13:51.456Z,8.20
2023-03-31T17:16:26.993Z,8.80
2023-03-31T17:19:04.926Z,8.10
2023-03-31T17:21:33.498Z,9.60
2023-03-31T17:24:03.288Z,9.50
2023-03-31T17:26:32.703Z,10.50
2023-03-31T17:29:01.396Z,8.90
2023-03-31T17:31:31.338Z,7.10
2023-03-31T17:33:59.991Z,8.60
2023-03-31T17:36:31.347Z,7.00
2023-03-31T17:39:00.563Z,8.40
2023-03-31T17:41:30.158Z,7.80
2023-03-31T17:43:59.037Z,13.20
2023-03-31T17:46:27.712Z,14.00
2023-03-31T17:48:59.274Z,15.50
2023-03-31T17:51:28.969Z,14.40
2023-03-31T17:53:57.698Z,14.90
2023-03-31T17:56:28.666Z,16.90
2023-03-31T17:58:57.709Z,18.50
2023-03-31T18:01:26.213Z,16.00
2023-03-31T18:03:57.888Z,17.50
2023-03-31T18:06:27.959Z,17.70
2023-03-31T18:08:57.180Z,13.80
2023-03-31T18:11:26.883Z,13.00
2023-03-31T18:13:56.607Z,13.50
2023-03-31T18:16:25.327Z,12.30
2023-03-31T18:18:54.148Z,14.80
2023-03-31T18:21:27.340Z,13.00
2023-03-31T18:23:55.691Z,14.90
2023-03-31T18:26:25.152Z,12.60
2023-03-31T18:28:55.652Z,16.90
2023-03-31T18:31:27.118Z,15.10
2023-03-31T18:33:55.733Z,14.00
2023-03-31T18:36:24.510Z,11.20
2023-03-31T18:38:53.726Z,14.00
2023-03-31T18:41:23.281Z,12.60
2023-03-31T18:43:53.098Z,14.60
2023-03-31T18:46:21.829Z,17.40
2023-03-31T18:48:51.591Z,16.00
2023-03-31T18:51:20.387Z,15.60
2023-03-31T18:53:50.709Z,18.30
2023-03-31T18:56:19.699Z,17.20
2023-03-31T18:58:52.001Z,18.40
2023-03-31T19:01:21.050Z,15.60
2023-03-31T19:03:50.782Z,13.50
2023-03-31T19:06:22.650Z,14.20
2023-03-31T19:08:52.256Z,16.10
2023-03-31T19:11:20.838Z,16.10
2023-03-31T19:13:49.852Z,14.70
2023-03-31T19:16:42.557Z,15.00
2023-03-31T19:19:12.929Z,16.80
2023-03-31T19:21:42.924Z,14.10
2023-03-31T19:24:12.102Z,19.50
2023-03-31T19:26:42.243Z,13.90
2023-03-31T19:29:11.536Z,13.80
2023-03-31T19:31:41.777Z,11.20
2023-03-31T19:34:11.845Z,12.80
2023-03-31T19:36:40.572Z,14.10
2023-03-31T19:39:09.669Z,14.10
2023-03-31T19:41:39.057Z,11.60
2023-03-31T19:44:07.539Z,12.40
2023-03-31T19:46:36.479Z,11.70
2023-03-31T19:49:05.235Z,10.90
2023-03-31T19:51:34.565Z,10.40
2023-03-31T19:54:03.127Z,10.80
2023-03-31T19:56:33.679Z,8.80
2023-03-31T19:59:02.889Z,9.20
2023-03-31T20:01:32.100Z,8.60
2023-03-31T20:04:06.473Z,11.80
2023-03-31T20:06:35.143Z,8.60
2023-03-31T20:09:06.431Z,9.70
2023-03-31T20:11:35.767Z,11.20
2023-03-31T20:14:04.473Z,8.80
2023-03-31T20:16:34.667Z,10.80
2023-03-31T20:19:05.537Z,9.80
2023-03-31T20:21:36.743Z,7.40
2023-03-31T20:26:36.369Z,10.00
2023-03-31T20:29:04.883Z,8.90
2023-03-31T20:31:39.288Z,9.70
2023-03-31T20:34:12.730Z,8.20
2023-03-31T20:36:42.472Z,8.30
2023-03-31T20:39:12.114Z,7.00
2023-03-31T20:41:40.696Z,9.40
2023-03-31T20:44:15.547Z,7.10
2023-03-31T20:46:44.804Z,5.60
2023-03-31T20:49:13.421Z,8.10
2023-03-31T20:51:42.707Z,5.60
2023-03-31T20:54:12.219Z,6.90
2023-03-31T20:56:41.629Z,7.60
2023-03-31T20:59:13.175Z,5.80
2023-03-31T21:01:58.652Z,7.90
2023-03-31T21:04:28.120Z,7.60
2023-03-31T21:06:56.618Z,6.60
2023-03-31T21:09:25.608Z,6.50
2023-03-31T21:11:55.454Z,6.50
2023-03-31T21:14:24.094Z,7.60
2023-03-31T21:16:52.495Z,5.90
2023-03-31T21:19:21.774Z,9.80
2023-03-31T21:21:50.177Z,6.70
2023-03-31T21:24:18.636Z,7.10
2023-03-31T21:26:47.150Z,7.50
2023-03-31T21:29:16.498Z,5.80
2023-03-31T21:31:46.561Z,8.30
2023-03-31T21:34:16.186Z,8.50
2023-03-31T21:36:45.043Z,8.30
2023-03-31T21:39:13.522Z,6.20
2023-03-31T21:41:42.577Z,7.00
2023-03-31T21:44:11.097Z,6.80
2023-03-31T21:46:39.832Z,7.70
2023-03-31T21:49:08.588Z,8.40
2023-03-31T21:51:37.205Z,9.90
2023-03-31T21:54:07.149Z,7.80
2023-03-31T21:56:35.762Z,4.90
2023-03-31T21:59:04.961Z,8.90
2023-03-31T22:01:34.433Z,7.50
2023-03-31T22:04:04.881Z,12.60
2023-03-31T22:06:34.678Z,7.80
2023-03-31T22:09:03.686Z,7.60
2023-03-31T22:11:32.585Z,8.30
2023-03-31T22:14:02.829Z,5.10
2023-03-31T22:16:32.134Z,8.10
2023-03-31T22:19:01.572Z,6.90
2023-03-31T22:21:43.756Z,5.00
2023-03-31T22:24:13.946Z,6.80
2023-03-31T22:26:42.971Z,8.00
2023-03-31T22:29:15.303Z,6.80
2023-03-31T22:31:44.846Z,8.70
2023-03-31T22:34:13.560Z,8.10
2023-03-31T22:36:42.528Z,9.80
2023-03-31T22:39:11.332Z,7.10
2023-03-31T22:41:39.946Z,8.00
2023-03-31T22:44:08.939Z,8.00
2023-03-31T22:46:40.811Z,6.30
2023-03-31T22:49:09.710Z,5.30
2023-03-31T22:51:40.734Z,5.60
2023-03-31T22:54:15.135Z,4.90
2023-03-31T22:56:44.332Z,6.90
2023-03-31T22:59:12.743Z,9.00
2023-03-31T23:01:42.131Z,7.00
2023-03-31T23:04:10.894Z,7.60
2023-03-31T23:06:39.431Z,5.60
2023-03-31T23:09:08.264Z,5.70
2023-03-31T23:11:37.495Z,5.50
2023-03-31T23:14:06.278Z,6.50
2023-03-31T23:16:35.397Z,11.30
2023-03-31T23:19:03.782Z,6.70
2023-03-31T23:21:32.864Z,7.50
2023-03-31T23:24:02.072Z,6.90
2023-03-31T23:26:32.730Z,7.30
2023-03-31T23:31:32.468Z,12.00
2023-03-31T23:34:01.305Z,6.60
2023-03-31T23:36:31.325Z,7.70
2023-03-31T23:39:00.799Z,8.90
2023-03-31T23:41:30.630Z,7.00
2023-03-31T23:44:00.051Z,8.20
2023-03-31T23:46:32.102Z,7.50
2023-03-31T23:49:02.970Z,6.30
2023-03-31T23:51:31.968Z,6.80
2023-03-31T23:54:00.771Z,9.10
2023-03-31T23:59:01.269Z,7.20
